Time;durP1;ratioP1;P1;durP2;ratioP2;P2;SDS_P1;SDS_P2;PMS_P1;PMS_P2;Temp;Humidity;BMP_temperature;BMP_pressure;BME280_temperature;BME280_humidity;BME280_pressure;Samples;Min_cycle;Max_cycle;Signal;HPM_P1;HPM_P2
2023/04/05 00:01:25;;;;;;;1999.90;999.90;;;0.40;99.90;;;;;;5100590;28;20432;-68
2023/04/05 00:03:53;;;;;;;1999.90;999.90;;;0.40;99.90;;;;;;5099536;28;20452;-68
2023/04/05 00:06:25;;;;;;;1999.90;999.90;;;0.40;99.90;;;;;;5111359;28;20470;-68
2023/04/05 00:08:54;;;;;;;1999.90;999.90;;;0.40;99.90;;;;;;5112025;28;20458;-68
2023/04/05 00:11:21;;;;;;;1999.90;999.90;;;0.40;99.90;;;;;;5111024;28;20426;-68
2023/04/05 00:13:48;;;;;;;1999.90;999.90;;;0.60;99.90;;;;;;5102038;28;20428;-69
2023/04/05 00:16:15;;;;;;;1999.90;999.90;;;0.60;99.90;;;;;;5097900;28;20509;-68
2023/04/05 00:18:48;;;;;;;1999.90;999.90;;;0.70;99.90;;;;;;5111434;28;20424;-70
2023/04/05 00:21:15;;;;;;;1999.90;999.90;;;0.90;99.90;;;;;;5108599;28;20435;-68
2023/04/05 00:23:43;;;;;;;1999.90;999.90;;;0.60;99.90;;;;;;5103258;28;20422;-69
2023/04/05 00:26:11;;;;;;;1999.90;999.90;;;0.70;99.90;;;;;;5119791;27;20796;-69
2023/04/05 00:28:38;;;;;;;1999.90;999.90;;;0.90;99.90;;;;;;5103513;28;20477;-68
2023/04/05 00:31:05;;;;;;;1999.90;999.90;;;1.60;99.90;;;;;;5109944;27;20402;-70
2023/04/05 00:33:32;;;;;;;1999.90;999.90;;;1.10;99.90;;;;;;5092062;28;21742;-69
2023/04/05 00:36:07;;;;;;;1999.90;999.90;;;1.10;99.90;;;;;;5092508;28;20475;-69
2023/04/05 00:38:34;;;;;;;1999.90;999.90;;;0.80;99.90;;;;;;5092038;28;20414;-68
2023/04/05 00:41:02;;;;;;;1999.90;999.90;;;0.70;99.90;;;;;;5092306;28;20500;-68
2023/04/05 00:43:28;;;;;;;1999.90;999.90;;;0.60;99.90;;;;;;5102474;27;20418;-69
2023/04/05 00:45:56;;;;;;;1999.90;999.90;;;0.60;99.90;;;;;;5099811;28;20471;-68
2023/04/05 00:48:23;;;;;;;1999.90;999.90;;;0.70;99.90;;;;;;5112232;28;20412;-69
2023/04/05 00:50:50;;;;;;;1999.90;999.90;;;0.60;99.90;;;;;;5112365;28;20408;-70
2023/04/05 00:53:19;;;;;;;1999.90;999.90;;;0.70;99.90;;;;;;5112198;28;20462;-68
2023/04/05 00:55:47;;;;;;;1999.90;999.90;;;0.50;99.90;;;;;;5112158;27;20424;-68
2023/04/05 00:58:18;;;;;;;1999.90;999.90;;;0.50;99.90;;;;;;5110333;28;20432;-69
2023/04/05 01:00:52;;;;;;;1999.90;999.90;;;0.50;99.90;;;;;;5098479;28;20796;-69
2023/04/05 01:03:24;;;;;;;1999.90;999.90;;;0.50;99.90;;;;;;5100966;28;20455;-70
2023/04/05 01:05:59;;;;;;;1999.90;999.90;;;0.60;99.90;;;;;;5105501;28;20420;-69
2023/04/05 01:08:37;;;;;;;1999.90;999.90;;;0.60;99.90;;;;;;5110502;28;20428;-68
2023/04/05 01:11:06;;;;;;;1999.90;999.90;;;0.70;99.90;;;;;;5111034;28;20424;-69
2023/04/05 01:13:34;;;;;;;1999.90;999.90;;;0.60;99.90;;;;;;5107203;28;20424;-69
2023/04/05 01:16:01;;;;;;;1999.90;999.90;;;0.80;99.90;;;;;;5105373;28;20412;-67
2023/04/05 01:18:29;;;;;;;1999.90;999.90;;;0.90;99.90;;;;;;5109107;28;20428;-69
2023/04/05 01:21:09;;;;;;;1999.90;999.90;;;1.00;99.90;;;;;;5101575;28;20435;-69
2023/04/05 01:23:41;;;;;;;1999.90;999.90;;;1.00;99.90;;;;;;5109655;28;20551;-68
2023/04/05 01:26:40;;;;;;;1999.90;999.90;;;0.70;99.90;;;;;;5110565;28;20420;-67
2023/04/05 01:29:40;;;;;;;1999.90;999.90;;;0.60;99.90;;;;;;5098669;28;20986;-69
2023/04/05 01:32:17;;;;;;;1999.90;999.90;;;0.70;99.90;;;;;;5096370;28;20588;-68
2023/04/05 01:34:50;;;;;;;1999.90;999.90;;;0.80;99.90;;;;;;5096784;28;20424;-69
2023/04/05 01:37:20;;;;;;;1999.90;999.90;;;0.90;99.90;;;;;;5100787;28;20515;-68
2023/04/05 01:39:47;;;;;;;1999.90;999.90;;;0.80;99.90;;;;;;5102419;28;20497;-68
2023/04/05 01:42:14;;;;;;;1999.90;999.90;;;0.60;99.90;;;;;;5101937;28;20845;-66
2023/04/05 01:44:40;;;;;;;1999.90;999.90;;;0.40;99.90;;;;;;5107488;28;20414;-69
2023/04/05 01:47:08;;;;;;;1999.90;999.90;;;0.50;99.90;;;;;;5101506;28;20834;-68
2023/04/05 01:49:35;;;;;;;1999.90;999.90;;;0.30;99.90;;;;;;5100317;28;20428;-68
2023/04/05 01:52:01;;;;;;;1999.90;999.90;;;0.10;99.90;;;;;;5098385;28;20425;-68
2023/04/05 01:54:28;;;;;;;1999.90;999.90;;;0.30;99.90;;;;;;5099684;28;20430;-67
2023/04/05 01:56:55;;;;;;;1999.90;999.90;;;0.40;99.90;;;;;;5097497;28;20417;-65
2023/04/05 01:59:22;;;;;;;1999.90;999.90;;;0.30;99.90;;;;;;5098826;28;20456;-68
2023/04/05 02:01:48;;;;;;;1999.90;999.90;;;0.40;99.90;;;;;;5103519;27;20422;-69
2023/04/05 02:04:16;;;;;;;1999.90;999.90;;;0.40;99.90;;;;;;5105708;28;20449;-68
2023/04/05 02:06:43;;;;;;;1999.90;999.90;;;0.50;99.90;;;;;;5102642;28;20438;-69
2023/04/05 02:09:09;;;;;;;1999.90;999.90;;;0.70;99.90;;;;;;5109792;28;20477;-68
2023/04/05 02:11:36;;;;;;;1999.90;999.90;;;0.90;99.90;;;;;;5107661;28;20420;-70
2023/04/05 02:14:03;;;;;;;1999.90;999.90;;;1.10;99.90;;;;;;5103447;28;20441;-68
2023/04/05 02:16:31;;;;;;;1999.90;999.90;;;1.10;99.90;;;;;;5095015;28;20429;-69
2023/04/05 02:18:58;;;;;;;1999.90;999.90;;;1.30;99.90;;;;;;5101795;28;20428;-65
2023/04/05 02:21:26;;;;;;;1999.90;999.90;;;1.40;99.90;;;;;;5107901;28;20485;-69
2023/04/05 02:23:54;;;;;;;1999.90;999.90;;;1.40;99.90;;;;;;5103269;28;20428;-68
2023/04/05 02:26:20;;;;;;;1999.90;999.90;;;1.30;99.90;;;;;;5104199;28;20418;-67
2023/04/05 02:28:47;;;;;;;1999.90;999.90;;;1.20;99.90;;;;;;5105142;28;20419;-70
2023/04/05 02:31:15;;;;;;;1999.90;999.90;;;1.20;99.90;;;;;;5096197;28;20892;-69
2023/04/05 02:33:41;;;;;;;1999.90;999.90;;;1.30;99.90;;;;;;5102491;28;20463;-67
2023/04/05 02:36:09;;;;;;;1999.90;999.90;;;1.40;99.90;;;;;;5110832;28;20416;-68
2023/04/05 02:38:37;;;;;;;1999.90;999.90;;;1.10;99.90;;;;;;5110489;28;20420;-68
2023/04/05 02:41:04;;;;;;;1999.90;999.90;;;0.80;99.90;;;;;;5110650;28;20461;-68
2023/04/05 02:43:32;;;;;;;1999.90;999.90;;;1.10;99.90;;;;;;5092168;28;20430;-68
2023/04/05 02:45:59;;;;;;;1999.90;999.90;;;0.70;99.90;;;;;;5106580;28;20480;-68
2023/04/05 02:48:26;;;;;;;1999.90;999.90;;;0.70;99.90;;;;;;5100781;28;20410;-68
2023/04/05 02:50:53;;;;;;;1999.90;999.90;;;0.70;99.90;;;;;;5090236;28;20414;-69
2023/04/05 02:53:21;;;;;;;1999.90;999.90;;;0.80;99.90;;;;;;5090419;28;20418;-71
2023/04/05 02:55:53;;;;;;;1999.90;999.90;;;0.80;99.90;;;;;;5096831;28;20412;-69
2023/04/05 02:58:20;;;;;;;1999.90;999.90;;;0.70;99.90;;;;;;5112045;28;20432;-68
2023/04/05 03:00:50;;;;;;;1999.90;999.90;;;0.80;99.90;;;;;;5115523;28;20430;-68
2023/04/05 03:03:17;;;;;;;1999.90;999.90;;;0.80;99.90;;;;;;5114703;28;20869;-68
2023/04/05 03:05:45;;;;;;;1999.90;999.90;;;0.80;99.90;;;;;;5121415;28;21002;-69
2023/04/05 03:08:17;;;;;;;1999.90;999.90;;;1.10;99.90;;;;;;5101931;28;20426;-69
2023/04/05 03:10:44;;;;;;;1999.90;999.90;;;1.20;99.90;;;;;;5110745;28;20425;-69
2023/04/05 03:13:13;;;;;;;1999.90;999.90;;;1.10;99.90;;;;;;5107411;28;20507;-68
2023/04/05 03:15:40;;;;;;;1999.90;999.90;;;1.10;99.90;;;;;;5105927;28;20423;-65
2023/04/05 03:18:06;;;;;;;1999.90;999.90;;;1.10;99.90;;;;;;5106953;27;20491;-68
2023/04/05 03:20:35;;;;;;;1999.90;999.90;;;0.80;99.90;;;;;;5109647;28;20428;-68
2023/04/05 03:23:02;;;;;;;1999.90;999.90;;;0.60;99.90;;;;;;5100024;28;20420;-65
2023/04/05 03:25:28;;;;;;;1999.90;999.90;;;0.50;99.90;;;;;;5103495;28;20423;-68
2023/04/05 03:27:56;;;;;;;1999.90;999.90;;;0.50;99.90;;;;;;5101729;28;20429;-68
2023/04/05 03:30:25;;;;;;;1999.90;999.90;;;0.60;99.90;;;;;;5101298;28;20845;-68
2023/04/05 03:32:51;;;;;;;1999.90;999.90;;;0.70;99.90;;;;;;5108899;28;20911;-68
2023/04/05 03:35:18;;;;;;;1999.90;999.90;;;0.80;99.90;;;;;;5100964;28;20426;-68
2023/04/05 03:37:45;;;;;;;1999.90;999.90;;;0.80;99.90;;;;;;5104046;28;20428;-68
2023/04/05 03:40:13;;;;;;;1999.90;999.90;;;0.90;99.90;;;;;;5102966;28;20450;-68
2023/04/05 03:42:39;;;;;;;1999.90;999.90;;;1.00;99.90;;;;;;5101808;27;20460;-70
2023/04/05 03:45:07;;;;;;;1999.90;999.90;;;1.10;99.90;;;;;;5112703;28;20412;-68
2023/04/05 03:47:36;;;;;;;1999.90;999.90;;;1.20;99.90;;;;;;5111105;28;20507;-70
2023/04/05 03:50:03;;;;;;;1999.90;999.90;;;1.30;99.90;;;;;;5106220;28;20485;-69
2023/04/05 03:52:30;;;;;;;1999.90;999.90;;;1.30;99.90;;;;;;5103260;28;20574;-68
2023/04/05 03:54:56;;;;;;;1999.90;999.90;;;1.20;99.90;;;;;;5106284;28;20420;-68
2023/04/05 03:57:23;;;;;;;1999.90;999.90;;;1.40;99.90;;;;;;5104248;28;20437;-69
2023/04/05 03:59:50;;;;;;;1999.90;999.90;;;1.60;99.90;;;;;;5104486;28;20838;-68
2023/04/05 04:02:16;;;;;;;1999.90;999.90;;;1.90;99.90;;;;;;5104948;28;20477;-68
2023/04/05 04:04:45;;;;;;;1999.90;999.90;;;2.00;99.90;;;;;;5113563;28;20813;-68
2023/04/05 04:07:11;;;;;;;1999.90;999.90;;;2.20;99.90;;;;;;5111041;28;20416;-68
2023/04/05 04:09:38;;;;;;;1999.90;999.90;;;1.40;99.90;;;;;;5103711;28;20465;-68
2023/04/05 04:12:05;;;;;;;1999.90;999.90;;;1.70;99.90;;;;;;5104980;28;20408;-69
2023/04/05 04:14:31;;;;;;;1999.90;999.90;;;1.80;99.90;;;;;;5104194;28;20432;-68
2023/04/05 04:16:58;;;;;;;1999.90;999.90;;;2.30;99.90;;;;;;5101419;28;20981;-69
2023/04/05 04:19:24;;;;;;;1999.90;999.90;;;1.90;99.90;;;;;;5124924;22;21636;-72
2023/04/05 04:21:54;;;;;;;1999.90;999.90;;;2.10;99.90;;;;;;5090286;28;20453;-72
2023/04/05 04:24:21;;;;;;;1999.90;999.90;;;2.20;99.90;;;;;;5097159;28;20517;-70
2023/04/05 04:26:49;;;;;;;1999.90;999.90;;;2.20;99.90;;;;;;5093865;28;20421;-72
2023/04/05 04:29:16;;;;;;;1999.90;999.90;;;2.10;99.90;;;;;;5094147;28;20459;-72
2023/04/05 04:31:44;;;;;;;1999.90;999.90;;;1.80;99.90;;;;;;5077338;28;20426;-74
2023/04/05 04:34:12;;;;;;;1999.90;999.90;;;1.90;99.90;;;;;;5074212;28;20829;-72
2023/04/05 04:36:41;;;;;;;1999.90;999.90;;;1.80;99.90;;;;;;5074096;28;20410;-72
2023/04/05 04:39:12;;;;;;;1999.90;999.90;;;1.80;99.90;;;;;;5073892;28;20496;-75
2023/04/05 04:41:45;;;;;;;1999.90;999.90;;;1.70;99.90;;;;;;5073733;28;20424;-72
2023/04/05 04:44:13;;;;;;;1999.90;999.90;;;1.80;99.90;;;;;;5082990;28;20492;-72
2023/04/05 04:46:42;;;;;;;1999.90;999.90;;;2.00;99.90;;;;;;5093939;28;20421;-76
2023/04/05 04:49:09;;;;;;;1999.90;999.90;;;2.30;99.90;;;;;;5093947;28;20413;-72
2023/04/05 04:51:37;;;;;;;1999.90;999.90;;;2.10;99.90;;;;;;5093727;28;20414;-72
2023/04/05 04:54:04;;;;;;;1999.90;999.90;;;2.00;99.90;;;;;;5093784;28;20443;-72
2023/04/05 04:56:32;;;;;;;1999.90;999.90;;;2.00;99.90;;;;;;5090100;28;20530;-72
2023/04/05 04:58:59;;;;;;;1999.90;999.90;;;2.20;99.90;;;;;;5081439;28;20431;-72
2023/04/05 05:01:26;;;;;;;1999.90;999.90;;;2.20;99.90;;;;;;5074988;28;20427;-72
2023/04/05 05:03:52;;;;;;;1999.90;999.90;;;2.10;99.90;;;;;;5081398;28;20423;-70
2023/04/05 05:06:20;;;;;;;1999.90;999.90;;;2.10;99.90;;;;;;5088790;28;20854;-72
2023/04/05 05:08:47;;;;;;;1999.90;999.90;;;2.10;99.90;;;;;;5088159;28;20436;-73
2023/04/05 05:11:14;;;;;;;1999.90;999.90;;;2.00;99.90;;;;;;5081075;28;20476;-72
2023/04/05 05:13:42;;;;;;;1999.90;999.90;;;2.00;99.90;;;;;;5082671;28;20459;-75
2023/04/05 05:16:09;;;;;;;1999.90;999.90;;;2.00;99.90;;;;;;5085414;28;20426;-72
2023/04/05 05:18:35;;;;;;;1999.90;999.90;;;2.30;99.90;;;;;;5081716;28;20935;-73
2023/04/05 05:21:02;;;;;;;1999.90;999.90;;;2.20;99.90;;;;;;5082783;28;20487;-72
2023/04/05 05:23:29;;;;;;;1999.90;999.90;;;2.10;99.90;;;;;;5074110;28;20838;-75
2023/04/05 05:25:58;;;;;;;1999.90;999.90;;;2.00;99.90;;;;;;5072888;28;20419;-72
2023/04/05 05:28:24;;;;;;;1999.90;999.90;;;2.10;99.90;;;;;;5072731;28;20416;-73
2023/04/05 05:30:52;;;;;;;1999.90;999.90;;;1.90;99.90;;;;;;5073774;28;20477;-71
2023/04/05 05:33:19;;;;;;;1999.90;999.90;;;2.20;99.90;;;;;;5075054;28;20419;-71
2023/04/05 05:35:48;;;;;;;1999.90;999.90;;;2.60;99.90;;;;;;5084286;28;20421;-71
2023/04/05 05:38:15;;;;;;;1999.90;999.90;;;2.10;99.90;;;;;;5082331;28;20430;-71
2023/04/05 05:40:42;;;;;;;1999.90;999.90;;;2.20;99.90;;;;;;5083420;28;20421;-71
2023/04/05 05:43:09;;;;;;;1999.90;999.90;;;2.20;99.90;;;;;;5083524;28;20426;-73
2023/04/05 05:45:36;;;;;;;1999.90;999.90;;;2.10;99.90;;;;;;5081120;28;20965;-71
2023/04/05 05:48:04;;;;;;;1999.90;999.90;;;2.30;99.90;;;;;;5083465;28;20961;-71
2023/04/05 05:50:32;;;;;;;1999.90;999.90;;;2.40;99.90;;;;;;5081224;28;20436;-72
2023/04/05 05:53:11;;;;;;;1999.90;999.90;;;2.60;99.90;;;;;;5075275;28;20427;-71
2023/04/05 05:55:37;;;;;;;1999.90;999.90;;;2.70;99.90;;;;;;5073319;28;20549;-72
2023/04/05 05:58:05;;;;;;;1999.90;999.90;;;2.60;99.90;;;;;;5082009;28;20777;-67
2023/04/05 06:00:32;;;;;;;1999.90;999.90;;;2.70;99.90;;;;;;5076958;28;20844;-71
2023/04/05 06:03:00;;;;;;;1999.90;999.90;;;2.60;99.90;;;;;;5079433;28;20431;-72
2023/04/05 06:05:28;;;;;;;1999.90;999.90;;;2.40;99.90;;;;;;5071828;28;20529;-71
2023/04/05 06:07:55;;;;;;;1999.90;999.90;;;2.70;99.90;;;;;;5073236;28;20492;-71
2023/04/05 06:10:23;;;;;;;1999.90;999.90;;;2.70;99.90;;;;;;5071278;28;20917;-71
2023/04/05 06:12:50;;;;;;;1999.90;999.90;;;2.70;99.90;;;;;;5078991;28;20516;-71
2023/04/05 06:15:17;;;;;;;1999.90;999.90;;;2.50;99.90;;;;;;5072013;28;20925;-71
2023/04/05 06:17:44;;;;;;;1999.90;999.90;;;2.60;99.90;;;;;;5071906;28;20905;-71
2023/04/05 06:20:11;;;;;;;1999.90;999.90;;;2.70;99.90;;;;;;5071590;28;20432;-74
2023/04/05 06:22:40;;;;;;;1999.90;999.90;;;2.50;99.90;;;;;;5072263;28;20440;-70
2023/04/05 06:25:08;;;;;;;1999.90;999.90;;;2.70;99.90;;;;;;5076523;28;20431;-70
2023/04/05 06:27:35;;;;;;;1999.90;999.90;;;2.90;99.90;;;;;;5072361;28;20423;-69
2023/04/05 06:30:02;;;;;;;1999.90;999.90;;;3.10;99.90;;;;;;5070010;28;20917;-71
2023/04/05 06:32:28;;;;;;;1999.90;999.90;;;3.10;99.90;;;;;;5077795;28;20431;-71
2023/04/05 06:34:55;;;;;;;1999.90;999.90;;;3.00;99.90;;;;;;5085664;28;20550;-68
2023/04/05 06:37:21;;;;;;;1999.90;999.90;;;3.10;99.90;;;;;;5086432;28;21093;-70
2023/04/05 06:39:49;;;;;;;1999.90;999.90;;;3.00;99.90;;;;;;5087497;28;20429;-74
2023/04/05 06:42:16;;;;;;;1999.90;999.90;;;3.00;99.90;;;;;;5075011;28;20431;-71
2023/04/05 06:44:43;;;;;;;1999.90;999.90;;;2.50;99.90;;;;;;5077101;28;20423;-73
2023/04/05 06:47:09;;;;;;;1999.90;999.90;;;3.00;99.90;;;;;;5082872;28;20431;-70
2023/04/05 06:49:36;;;;;;;1999.90;999.90;;;2.90;99.90;;;;;;5090009;28;20441;-71
2023/04/05 06:52:04;;;;;;;1999.90;999.90;;;3.20;99.90;;;;;;5084878;28;21007;-69
2023/04/05 06:54:31;;;;;;;1999.90;999.90;;;3.30;99.90;;;;;;5082917;28;20919;-70
2023/04/05 06:56:59;;;;;;;1999.90;999.90;;;3.60;99.90;;;;;;5081531;28;20459;-69
2023/04/05 06:59:29;;;;;;;1999.90;999.90;;;3.60;99.90;;;;;;5081898;28;20431;-68
2023/04/05 07:01:55;;;;;;;1999.90;999.90;;;4.00;99.90;;;;;;5082213;28;20429;-74
2023/04/05 07:04:22;;;;;;;1999.90;999.90;;;3.80;99.90;;;;;;5079118;28;20977;-71
2023/04/05 07:06:49;;;;;;;1999.90;999.90;;;3.90;99.90;;;;;;5076183;28;20485;-71
2023/04/05 07:09:16;;;;;;;1999.90;999.90;;;4.30;99.90;;;;;;5084943;28;20920;-73
2023/04/05 07:11:43;;;;;;;1999.90;999.90;;;3.90;99.90;;;;;;5081601;28;20435;-72
2023/04/05 07:14:11;;;;;;;1999.90;999.90;;;4.50;99.90;;;;;;5086679;28;20497;-73
2023/04/05 07:16:38;;;;;;;1999.90;999.90;;;4.70;99.90;;;;;;5090869;28;20975;-71
2023/04/05 07:19:06;;;;;;;1999.90;999.90;;;4.50;99.90;;;;;;5086348;28;20475;-75
2023/04/05 07:21:32;;;;;;;1999.90;999.90;;;4.40;99.90;;;;;;5094774;28;20422;-78
2023/04/05 07:24:00;;;;;;;1999.90;999.90;;;4.20;99.90;;;;;;5095993;28;20479;-71
2023/04/05 07:26:27;;;;;;;1999.90;999.90;;;4.00;99.90;;;;;;5085972;28;20432;-74
2023/04/05 07:28:54;;;;;;;1999.90;999.90;;;4.40;99.90;;;;;;5088245;28;20433;-70
2023/04/05 07:31:22;;;;;;;1999.90;999.90;;;4.70;99.90;;;;;;5088285;28;20854;-74
2023/04/05 07:33:48;;;;;;;1999.90;999.90;;;5.00;99.90;;;;;;5093885;28;20462;-73
2023/04/05 07:36:15;;;;;;;1999.90;999.90;;;4.90;99.90;;;;;;5090726;28;20429;-75
2023/04/05 07:38:42;;;;;;;1999.90;999.90;;;4.90;99.90;;;;;;5084694;28;20420;-74
2023/04/05 07:41:09;;;;;;;1999.90;999.90;;;5.30;99.90;;;;;;5092776;28;20425;-73
2023/04/05 07:43:36;;;;;;;1999.90;999.90;;;5.60;99.90;;;;;;5093335;28;20421;-73
2023/04/05 07:46:03;;;;;;;1999.90;999.90;;;6.00;99.90;;;;;;5087815;28;20924;-73
2023/04/05 07:48:31;;;;;;;1999.90;999.90;;;6.70;99.90;;;;;;5081014;28;20480;-76
2023/04/05 07:51:03;;;;;;;1999.90;999.90;;;6.50;99.90;;;;;;5078749;28;21004;-75
2023/04/05 07:53:30;;;;;;;1999.90;999.90;;;6.60;99.90;;;;;;5070739;28;20430;-72
2023/04/05 07:55:57;;;;;;;1999.90;999.90;;;6.90;99.90;;;;;;5071004;28;20840;-74
2023/04/05 07:58:25;;;;;;;1999.90;999.90;;;7.20;99.90;;;;;;5077980;28;20550;-69
2023/04/05 08:00:52;;;;;;;1999.90;999.90;;;7.30;99.90;;;;;;5084244;28;20927;-74
2023/04/05 08:03:19;;;;;;;1999.90;999.90;;;7.40;99.90;;;;;;5077963;28;20428;-71
2023/04/05 08:05:46;;;;;;;1999.90;999.90;;;7.50;99.90;;;;;;5079980;28;20422;-70
2023/04/05 08:08:13;;;;;;;1999.90;999.90;;;7.20;99.90;;;;;;5085571;28;20417;-74
2023/04/05 08:10:40;;;;;;;1999.90;999.90;;;7.20;99.90;;;;;;5092656;28;20412;-74
2023/04/05 08:13:07;;;;;;;1999.90;999.90;;;7.50;99.90;;;;;;5093024;28;20413;-73
2023/04/05 08:15:33;;;;;;;1999.90;999.90;;;7.70;99.90;;;;;;5091605;28;20433;-73
2023/04/05 08:18:00;;;;;;;1999.90;999.90;;;7.60;99.90;;;;;;5082270;28;20530;-74
2023/04/05 08:20:27;;;;;;;1999.90;999.90;;;7.60;98.50;;;;;;5073512;28;20461;-73
2023/04/05 08:22:55;;;;;;;1999.90;999.90;;;7.90;98.30;;;;;;5073828;28;20412;-73
2023/04/05 08:25:21;;;;;;;1999.90;999.90;;;7.50;97.40;;;;;;5073597;28;20432;-73
2023/04/05 08:27:48;;;;;;;1999.90;999.90;;;7.90;98.30;;;;;;5072355;28;20432;-71
2023/04/05 08:30:15;;;;;;;1999.90;999.90;;;8.40;97.50;;;;;;5087728;28;20434;-73
2023/04/05 08:32:42;;;;;;;1999.90;999.90;;;8.70;96.40;;;;;;5085392;28;20472;-73
2023/04/05 08:35:09;;;;;;;1999.90;999.90;;;8.90;94.70;;;;;;5073302;28;20427;-73
2023/04/05 08:37:36;;;;;;;1999.90;999.90;;;8.70;92.60;;;;;;5084937;28;20942;-72
2023/04/05 08:40:04;;;;;;;1999.90;999.90;;;8.40;93.40;;;;;;5078949;28;20937;-74
2023/04/05 08:42:36;;;;;;;1999.90;999.90;;;8.30;92.60;;;;;;5074690;28;20431;-69
2023/04/05 08:45:03;;;;;;;1999.90;999.90;;;7.80;93.70;;;;;;5082887;28;20448;-73
2023/04/05 08:47:31;;;;;;;1999.90;999.90;;;7.80;94.80;;;;;;5073171;28;20419;-74
2023/04/05 08:49:57;;;;;;;1999.90;999.90;;;8.20;95.60;;;;;;5077125;28;20430;-74
2023/04/05 08:52:25;;;;;;;1999.90;999.90;;;8.40;95.70;;;;;;5080093;28;20483;-73
2023/04/05 08:54:54;;;;;;;1999.90;999.90;;;8.60;95.60;;;;;;5076464;28;20429;-72
2023/04/05 08:57:26;;;;;;;1999.90;999.90;;;9.20;95.00;;;;;;5076971;28;20514;-69
2023/04/05 08:59:54;;;;;;;1999.90;999.90;;;9.40;93.60;;;;;;5071890;28;20434;-73
2023/04/05 09:02:23;;;;;;;1999.90;999.90;;;9.40;94.20;;;;;;5077112;28;20430;-73
2023/04/05 09:04:51;;;;;;;1999.90;999.90;;;9.20;95.40;;;;;;5081908;28;20422;-73
2023/04/05 09:07:19;;;;;;;1999.90;999.90;;;9.20;94.60;;;;;;5078886;28;20433;-70
2023/04/05 09:09:49;;;;;;;1999.90;999.90;;;9.30;95.00;;;;;;5069068;28;20458;-71
2023/04/05 09:12:16;;;;;;;1999.90;999.90;;;9.60;95.00;;;;;;5076626;28;20510;-72
2023/04/05 09:14:44;;;;;;;1999.90;999.90;;;10.00;93.70;;;;;;5071253;28;20449;-73
2023/04/05 09:17:11;;;;;;;1999.90;999.90;;;10.00;92.20;;;;;;5080927;28;20487;-72
2023/04/05 09:19:37;;;;;;;1999.90;999.90;;;10.20;93.00;;;;;;5077513;28;20479;-73
2023/04/05 09:22:05;;;;;;;1999.90;999.90;;;10.40;91.70;;;;;;5070010;28;20519;-75
2023/04/05 09:24:34;;;;;;;1999.90;999.90;;;10.30;91.50;;;;;;5084818;28;20426;-74
2023/04/05 09:27:05;;;;;;;1999.90;999.90;;;10.20;92.40;;;;;;5069992;28;20432;-71
2023/04/05 09:29:32;;;;;;;1999.90;999.90;;;10.20;92.30;;;;;;5070748;28;20435;-73
2023/04/05 09:32:01;;;;;;;1999.90;999.90;;;10.50;90.50;;;;;;5076246;28;20813;-71
2023/04/05 09:34:29;;;;;;;1999.90;999.90;;;10.50;91.10;;;;;;5068657;28;20419;-76
2023/04/05 09:36:56;;;;;;;1999.90;999.90;;;10.30;87.40;;;;;;5072964;28;20784;-73
2023/04/05 09:39:28;;;;;;;1999.90;999.90;;;10.30;84.30;;;;;;5072761;28;20990;-74
2023/04/05 09:42:10;;;;;;;1999.90;999.90;;;9.80;83.60;;;;;;5077522;28;20428;-73
2023/04/05 09:44:54;;;;;;;1999.90;999.90;;;9.20;87.40;;;;;;5071198;28;20442;-72
2023/04/05 09:47:26;;;;;;;1999.90;999.90;;;9.40;90.30;;;;;;5075100;28;20438;-73
2023/04/05 09:49:52;;;;;;;1999.90;999.90;;;9.80;85.80;;;;;;5080776;28;20431;-73
2023/04/05 09:52:23;;;;;;;1999.90;999.90;;;10.10;84.80;;;;;;5077640;28;20868;-73
2023/04/05 09:54:52;;;;;;;1999.90;999.90;;;10.00;82.80;;;;;;5083904;28;20473;-73
2023/04/05 09:57:19;;;;;;;1999.90;999.90;;;10.30;83.40;;;;;;5077476;28;20429;-73
2023/04/05 09:59:46;;;;;;;1999.90;999.90;;;10.80;81.70;;;;;;5078519;28;20441;-73
2023/04/05 10:02:13;;;;;;;1999.90;999.90;;;10.70;76.70;;;;;;5081286;28;20431;-73
2023/04/05 10:04:42;;;;;;;1999.90;999.90;;;10.20;79.80;;;;;;5086936;28;20433;-73
2023/04/05 10:07:13;;;;;;;1999.90;999.90;;;10.20;82.10;;;;;;5085164;28;20955;-73
2023/04/05 10:09:40;;;;;;;1999.90;999.90;;;10.20;81.30;;;;;;5085774;28;20871;-73
2023/04/05 10:12:07;;;;;;;1999.90;999.90;;;10.40;77.90;;;;;;5085831;28;20783;-73
2023/04/05 10:14:35;;;;;;;1999.90;999.90;;;10.10;78.10;;;;;;5076628;28;20423;-73
2023/04/05 10:17:09;;;;;;;1999.90;999.90;;;10.10;80.00;;;;;;5089751;28;20471;-73
2023/04/05 10:19:55;;;;;;;1999.90;999.90;;;10.20;79.40;;;;;;5090240;28;20425;-74
2023/04/05 10:22:25;;;;;;;1999.90;999.90;;;10.20;81.50;;;;;;5088871;28;20410;-74
2023/04/05 10:24:57;;;;;;;1999.90;999.90;;;10.30;80.90;;;;;;5077264;28;20821;-74
2023/04/05 10:27:32;;;;;;;1999.90;999.90;;;10.40;81.20;;;;;;5077498;28;20425;-72
2023/04/05 10:30:07;;;;;;;1999.90;999.90;;;9.70;80.40;;;;;;5078141;28;20426;-72
2023/04/05 10:32:45;;;;;;;1999.90;999.90;;;9.50;83.80;;;;;;5075212;28;20444;-74
2023/04/05 10:35:17;;;;;;;1999.90;999.90;;;9.80;80.90;;;;;;5075083;28;21197;-73
2023/04/05 10:37:53;;;;;;;1999.90;999.90;;;9.90;80.00;;;;;;5083899;28;20948;-70
2023/04/05 10:40:21;;;;;;;1999.90;999.90;;;9.70;81.90;;;;;;5077624;28;20430;-75
2023/04/05 10:42:49;;;;;;;1999.90;999.90;;;9.50;84.00;;;;;;5071133;28;20438;-73
2023/04/05 10:45:21;;;;;;;1999.90;999.90;;;9.30;84.30;;;;;;5074992;28;20507;-71
2023/04/05 10:47:54;;;;;;;1999.90;999.90;;;9.30;85.50;;;;;;5070720;28;20456;-72
2023/04/05 10:50:24;;;;;;;1999.90;999.90;;;9.50;86.30;;;;;;5075222;28;20432;-73
2023/04/05 10:52:52;;;;;;;1999.90;999.90;;;9.60;86.90;;;;;;5068788;28;20517;-72
2023/04/05 10:55:19;;;;;;;1999.90;999.90;;;9.70;86.00;;;;;;5072772;28;21085;-72
2023/04/05 10:57:46;;;;;;;1999.90;999.90;;;9.70;86.30;;;;;;5070349;28;20794;-73
2023/04/05 11:00:15;;;;;;;1999.90;999.90;;;9.70;88.00;;;;;;5069404;28;20436;-73
2023/04/05 11:02:42;;;;;;;1999.90;999.90;;;10.00;87.40;;;;;;5069052;28;20456;-72
2023/04/05 11:05:36;;;;;;;1999.90;999.90;;;9.90;87.00;;;;;;5067140;28;20423;-75
2023/04/05 11:08:07;;;;;;;1999.90;999.90;;;9.80;87.20;;;;;;5066748;28;20427;-73
2023/04/05 11:10:38;;;;;;;1999.90;999.90;;;9.70;88.00;;;;;;5066419;28;20429;-74
2023/04/05 11:13:06;;;;;;;1999.90;999.90;;;9.60;89.20;;;;;;5069106;28;20431;-73
2023/04/05 11:15:34;;;;;;;1999.90;999.90;;;10.10;88.40;;;;;;5071782;28;20432;-73
2023/04/05 11:18:06;;;;;;;1999.90;999.90;;;10.40;86.60;;;;;;5076604;28;20501;-72
2023/04/05 11:20:46;;;;;;;1999.90;999.90;;;10.50;85.10;;;;;;5017648;28;1704736;-72
2023/04/05 11:23:15;;;;;;;1999.90;999.90;;;10.20;85.90;;;;;;5081051;28;20428;-72
2023/04/05 11:25:46;;;;;;;1999.90;999.90;;;10.20;86.70;;;;;;5071778;28;20422;-72
2023/04/05 11:28:23;;;;;;;1999.90;999.90;;;10.40;86.60;;;;;;5074591;28;20435;-74
2023/04/05 11:30:51;;;;;;;1999.90;999.90;;;10.30;84.70;;;;;;5072607;28;20507;-75
2023/04/05 11:33:38;;;;;;;1999.90;999.90;;;9.90;86.00;;;;;;5080587;28;20426;-73
2023/04/05 11:36:06;;;;;;;1999.90;999.90;;;9.90;88.50;;;;;;5074358;28;20493;-72
2023/04/05 11:38:33;;;;;;;1999.90;999.90;;;9.20;87.00;;;;;;5078379;28;20919;-74
2023/04/05 11:41:07;;;;;;;1999.90;999.90;;;9.50;89.10;;;;;;5084891;28;20413;-72
2023/04/05 11:43:37;;;;;;;1999.90;999.90;;;9.50;89.00;;;;;;5093419;28;20422;-71
2023/04/05 11:46:04;;;;;;;1999.90;999.90;;;10.00;85.60;;;;;;5093065;28;20581;-71
2023/04/05 11:48:31;;;;;;;1999.90;999.90;;;10.00;85.20;;;;;;5082078;28;20435;-72
2023/04/05 11:50:57;;;;;;;1999.90;999.90;;;10.40;86.60;;;;;;5085591;28;20422;-71
2023/04/05 11:53:25;;;;;;;1999.90;999.90;;;10.60;84.90;;;;;;5085874;28;20467;-72
2023/04/05 11:55:54;;;;;;;1999.90;999.90;;;11.00;85.30;;;;;;5081277;28;20576;-73
2023/04/05 11:58:22;;;;;;;1999.90;999.90;;;11.50;81.70;;;;;;5080583;28;20471;-73
2023/04/05 12:00:58;;;;;;;1999.90;999.90;;;11.40;80.90;;;;;;5085439;28;20487;-73
2023/04/05 12:03:24;;;;;;;1999.90;999.90;;;11.00;81.10;;;;;;5072638;28;20411;-74
2023/04/05 12:05:52;;;;;;;1999.90;999.90;;;10.60;83.40;;;;;;5072346;28;20484;-73
2023/04/05 12:08:19;;;;;;;1999.90;999.90;;;10.60;82.60;;;;;;5070851;28;20431;-73
2023/04/05 12:10:55;;;;;;;1999.90;999.90;;;10.40;83.30;;;;;;5072206;28;20902;-72
2023/04/05 12:13:26;;;;;;;1999.90;999.90;;;10.50;87.60;;;;;;5072458;28;20793;-73